sensor_id;sensor_type;location;lat;lon;timestamp;pressure;altitude;pressure_sealevel;temperature;humidity
6869;BME280;3473;42.604;23.496;2023-02-10T12:44:18;20008.53;;;-140.19;25.71
6869;BME280;3473;42.604;23.496;2023-02-10T12:46:22;20026.00;;;-140.19;25.59
6869;BME280;3473;42.604;23.496;2023-02-10T12:48:24;19853.25;;;-140.19;25.46
6869;BME280;3473;42.604;23.496;2023-02-10T12:50:32;19721.25;;;-140.19;25.13
6869;BME280;3473;42.604;23.496;2023-02-10T12:52:32;19752.31;;;-140.19;25.18
6869;BME280;3473;42.604;23.496;2023-02-10T12:54:33;19723.22;;;-140.19;25.23
6869;BME280;3473;42.604;23.496;2023-02-10T12:56:30;19670.81;;;-140.19;24.96
6869;BME280;3473;42.604;23.496;2023-02-10T12:58:27;19725.16;;;-140.19;25.55
6869;BME280;3473;42.604;23.496;2023-02-10T13:00:25;19843.53;;;-140.19;25.90
6869;BME280;3473;42.604;23.496;2023-02-10T13:02:23;19771.72;;;-140.19;26.47
6869;BME280;3473;42.604;23.496;2023-02-10T13:04:22;19826.06;;;-140.19;26.13
6869;BME280;3473;42.604;23.496;2023-02-10T13:06:25;19742.63;;;-140.19;26.22
6869;BME280;3473;42.604;23.496;2023-02-10T13:08:24;19674.69;;;-140.19;26.35
6869;BME280;3473;42.604;23.496;2023-02-10T13:10:06;19682.44;;;-140.19;26.87
6869;BME280;3473;42.604;23.496;2023-02-10T13:11:43;19795.03;;;-140.19;26.48
6869;BME280;3473;42.604;23.496;2023-02-10T13:13:22;19785.31;;;-140.19;27.21
6869;BME280;3473;42.604;23.496;2023-02-10T13:14:59;19610.63;;;-140.19;26.72
6869;BME280;3473;42.604;23.496;2023-02-10T13:16:38;19538.84;;;-140.19;26.68
6869;BME280;3473;42.604;23.496;2023-02-10T13:18:18;19632.00;;;-140.19;26.49
6869;BME280;3473;42.604;23.496;2023-02-10T13:19:56;19717.38;;;-140.19;27.24
6869;BME280;3473;42.604;23.496;2023-02-10T13:21:34;19849.38;;;-140.19;27.73
6869;BME280;3473;42.604;23.496;2023-02-10T13:23:19;19866.84;;;-140.19;27.74
6869;BME280;3473;42.604;23.496;2023-02-10T13:25:00;19979.41;;;-140.19;28.30
6869;BME280;3473;42.604;23.496;2023-02-10T13:26:49;19930.88;;;-140.19;27.97
6869;BME280;3473;42.604;23.496;2023-02-10T13:28:27;19973.59;;;-140.19;27.85
6869;BME280;3473;42.604;23.496;2023-02-10T13:30:11;19608.69;;;-140.19;27.21
6869;BME280;3473;42.604;23.496;2023-02-10T13:31:58;19494.19;;;-140.19;26.59
6869;BME280;3473;42.604;23.496;2023-02-10T13:33:42;19540.78;;;-140.19;26.57
6869;BME280;3473;42.604;23.496;2023-02-10T13:35:20;19542.72;;;-140.19;26.65
6869;BME280;3473;42.604;23.496;2023-02-10T13:36:56;19338.94;;;-140.19;26.32
6869;BME280;3473;42.604;23.496;2023-02-10T13:38:31;19271.03;;;-140.19;25.59
6869;BME280;3473;42.604;23.496;2023-02-10T13:40:14;19236.09;;;-140.19;26.12
6869;BME280;3473;42.604;23.496;2023-02-10T13:41:49;19243.84;;;-140.19;25.98
6869;BME280;3473;42.604;23.496;2023-02-10T13:43:28;19115.78;;;-140.19;25.38
6869;BME280;3473;42.604;23.496;2023-02-10T13:45:11;19222.50;;;-140.19;25.25
6869;BME280;3473;42.604;23.496;2023-02-10T13:46:49;19164.28;;;-140.19;24.98
6869;BME280;3473;42.604;23.496;2023-02-10T13:48:26;19078.91;;;-140.19;25.11
6869;BME280;3473;42.604;23.496;2023-02-10T13:50:02;18846.06;;;-140.19;24.55
6869;BME280;3473;42.604;23.496;2023-02-10T13:51:36;18762.63;;;-140.19;24.96
6869;BME280;3473;42.604;23.496;2023-02-10T13:53:28;18669.50;;;-140.19;24.85
6869;BME280;3473;42.604;23.496;2023-02-10T13:55:03;18725.78;;;-140.19;24.76
6869;BME280;3473;42.604;23.496;2023-02-10T13:56:54;18613.25;;;-140.19;25.03
6869;BME280;3473;42.604;23.496;2023-02-10T13:58:32;18459.97;;;-140.19;24.80
6869;BME280;3473;42.604;23.496;2023-02-10T14:00:12;18446.38;;;-140.19;24.98
6869;BME280;3473;42.604;23.496;2023-02-10T14:01:47;18489.06;;;-140.19;24.68
6869;BME280;3473;42.604;23.496;2023-02-10T14:03:21;18640.41;;;-140.19;25.11
6869;BME280;3473;42.604;23.496;2023-02-10T14:04:56;18491.00;;;-140.19;26.00
6869;BME280;3473;42.604;23.496;2023-02-10T14:06:36;18492.94;;;-140.19;25.94
6869;BME280;3473;42.604;23.496;2023-02-10T14:08:13;18485.19;;;-140.19;25.92
6869;BME280;3473;42.604;23.496;2023-02-10T14:09:46;18456.09;;;-140.19;25.80
6869;BME280;3473;42.604;23.496;2023-02-10T14:11:38;18461.91;;;-140.19;25.99
6869;BME280;3473;42.604;23.496;2023-02-10T14:13:21;18370.72;;;-140.19;25.65
6869;BME280;3473;42.604;23.496;2023-02-10T14:14:56;18624.88;;;-140.19;25.61
6869;BME280;3473;42.604;23.496;2023-02-10T14:16:29;18225.22;;;-140.19;25.86
6869;BME280;3473;42.604;23.496;2023-02-10T14:18:04;18209.72;;;-140.19;25.61
6869;BME280;3473;42.604;23.496;2023-02-10T14:19:39;18124.34;;;-140.19;24.67
6869;BME280;3473;42.604;23.496;2023-02-10T14:21:14;18019.59;;;-140.19;24.47
6869;BME280;3473;42.604;23.496;2023-02-10T14:22:50;17988.56;;;-140.19;23.62
6869;BME280;3473;42.604;23.496;2023-02-10T14:24:24;17920.66;;;-140.19;24.01
6869;BME280;3473;42.604;23.496;2023-02-10T14:25:58;17802.34;;;-140.19;23.84
6869;BME280;3473;42.604;23.496;2023-02-10T14:27:31;17976.94;;;-140.19;23.90
6869;BME280;3473;42.604;23.496;2023-02-10T14:29:03;17660.75;;;-140.19;23.50
6869;BME280;3473;42.604;23.496;2023-02-10T14:30:43;17769.38;;;-140.19;23.69
6869;BME280;3473;42.604;23.496;2023-02-10T14:32:16;17532.75;;;-140.19;23.81
6869;BME280;3473;42.604;23.496;2023-02-10T14:33:52;17534.69;;;-140.19;23.64
6869;BME280;3473;42.604;23.496;2023-02-10T14:35:25;17515.28;;;-140.19;24.16
6869;BME280;3473;42.604;23.496;2023-02-10T14:37:02;17468.72;;;-140.19;24.38
6869;BME280;3473;42.604;23.496;2023-02-10T14:38:34;17515.28;;;-140.19;25.42
6869;BME280;3473;42.604;23.496;2023-02-10T14:40:14;17515.28;;;-140.19;25.96
6869;BME280;3473;42.604;23.496;2023-02-10T14:41:47;17604.50;;;-140.19;26.37
6869;BME280;3473;42.604;23.496;2023-02-10T14:43:22;17740.28;;;-140.19;27.30
6869;BME280;3473;42.604;23.496;2023-02-10T14:44:57;17662.69;;;-140.19;27.85
6869;BME280;3473;42.604;23.496;2023-02-10T14:46:30;17845.03;;;-140.19;28.59
6869;BME280;3473;42.604;23.496;2023-02-10T14:48:05;18066.16;;;-140.19;28.84
6869;BME280;3473;42.604;23.496;2023-02-10T14:49:39;17994.38;;;-140.19;30.35
6869;BME280;3473;42.604;23.496;2023-02-10T14:51:18;18221.34;;;-140.19;31.17
6869;BME280;3473;42.604;23.496;2023-02-10T14:52:52;18116.59;;;-140.19;31.76
6869;BME280;3473;42.604;23.496;2023-02-10T14:54:25;18167.03;;;-140.19;32.17
6869;BME280;3473;42.604;23.496;2023-02-10T14:58:27;18411.47;;;-140.19;34.24
6869;BME280;3473;42.604;23.496;2023-02-10T15:00:00;18529.81;;;-140.19;35.00
6869;BME280;3473;42.604;23.496;2023-02-10T15:01:33;18613.25;;;-140.19;35.71
6869;BME280;3473;42.604;23.496;2023-02-10T15:03:06;18671.44;;;-140.19;36.58
6869;BME280;3473;42.604;23.496;2023-02-10T15:04:43;18712.19;;;-140.19;36.77
6869;BME280;3473;42.604;23.496;2023-02-10T15:06:16;18723.84;;;-140.19;37.27
6869;BME280;3473;42.604;23.496;2023-02-10T15:07:50;18815.03;;;-140.19;37.91
6869;BME280;3473;42.604;23.496;2023-02-10T15:09:30;18906.22;;;-140.19;38.56
6869;BME280;3473;42.604;23.496;2023-02-10T15:11:05;18964.44;;;-140.19;38.87
6869;BME280;3473;42.604;23.496;2023-02-10T15:12:38;18954.72;;;-140.19;39.54
6869;BME280;3473;42.604;23.496;2023-02-10T15:14:16;18958.59;;;-140.19;39.48
6869;BME280;3473;42.604;23.496;2023-02-10T15:15:50;19141.00;;;-140.19;39.81
6869;BME280;3473;42.604;23.496;2023-02-10T15:17:26;19005.19;;;-140.19;39.37
